Time;durP1;ratioP1;P1;durP2;ratioP2;P2;SDS_P1;SDS_P2;PMS_P1;PMS_P2;Temp;Humidity;BMP_temperature;BMP_pressure;BME280_temperature;BME280_humidity;BME280_pressure;Samples;Min_cycle;Max_cycle;Signal;HPM_P1;HPM_P2
2022/02/28 00:00:32;;;;;;;24.00;10.90;;;;;;;;;;5063106;28;20052;-84
2022/02/28 00:03:02;;;;;;;24.35;11.52;;;;;;;;;;5046207;28;20072;-85
2022/02/28 00:05:30;;;;;;;24.83;10.38;;;;;;;;;;5025073;28;20049;-84
2022/02/28 00:08:00;;;;;;;23.48;11.80;;;;;;;;;;5050592;28;20044;-84
2022/02/28 00:10:29;;;;;;;26.85;11.82;;;;;;;;;;5062694;28;20037;-84
2022/02/28 00:12:57;;;;;;;37.10;17.00;;;;;;;;;;5043674;28;20037;-84
2022/02/28 00:15:25;;;;;;;20.42;10.88;;;;;;;;;;5046165;28;20143;-84
2022/02/28 00:17:53;;;;;;;20.27;9.32;;;;;;;;;;5042330;28;20148;-84
2022/02/28 00:20:24;;;;;;;18.85;8.65;;;;;;;;;;5059783;28;20543;-84
2022/02/28 00:22:53;;;;;;;21.48;9.02;;;;;;;;;;5065196;28;20044;-84
2022/02/28 00:25:22;;;;;;;22.17;9.00;;;;;;;;;;5030792;28;20075;-84
2022/02/28 00:27:54;;;;;;;24.90;9.73;;;;;;;;;;5063691;28;20132;-84
2022/02/28 00:30:21;;;;;;;27.63;10.20;;;;;;;;;;5031821;28;20432;-84
2022/02/28 00:32:49;;;;;;;19.88;10.02;;;;;;;;;;5065731;28;20053;-84
2022/02/28 00:35:17;;;;;;;21.25;9.32;;;;;;;;;;5048317;28;20079;-84
2022/02/28 00:40:32;;;;;;;21.75;10.70;;;;;;;;;;5050465;28;20049;-84
2022/02/28 00:43:02;;;;;;;23.08;10.18;;;;;;;;;;5063791;28;20048;-84
2022/02/28 00:45:29;;;;;;;19.52;10.02;;;;;;;;;;5068312;28;20049;-84
2022/02/28 00:47:57;;;;;;;21.63;8.57;;;;;;;;;;5046104;28;20041;-84
2022/02/28 00:50:25;;;;;;;16.08;7.22;;;;;;;;;;5048465;28;20155;-85
2022/02/28 00:52:54;;;;;;;14.50;7.63;;;;;;;;;;5050527;28;20041;-85
2022/02/28 00:55:22;;;;;;;17.48;8.10;;;;;;;;;;5053873;28;20059;-85
2022/02/28 00:57:51;;;;;;;15.82;8.27;;;;;;;;;;5042076;28;20056;-85
2022/02/28 01:00:20;;;;;;;17.55;8.48;;;;;;;;;;5058863;28;20060;-85
2022/02/28 01:05:30;;;;;;;27.98;12.35;;;;;;;;;;5048857;28;20072;-84
2022/02/28 01:08:03;;;;;;;23.42;10.80;;;;;;;;;;5036275;28;20042;-84
2022/02/28 01:10:31;;;;;;;23.00;11.45;;;;;;;;;;5040240;28;20044;-84
2022/02/28 01:13:04;;;;;;;19.35;8.77;;;;;;;;;;5035758;28;20401;-84
2022/02/28 01:15:32;;;;;;;17.17;8.63;;;;;;;;;;5034014;28;20448;-84
2022/02/28 01:17:59;;;;;;;18.98;9.45;;;;;;;;;;5035840;28;20504;-84
2022/02/28 01:20:27;;;;;;;17.83;7.85;;;;;;;;;;5033936;28;20049;-85
2022/02/28 01:22:54;;;;;;;18.17;8.25;;;;;;;;;;5035313;28;20107;-84
2022/02/28 01:25:24;;;;;;;23.88;8.30;;;;;;;;;;5034031;28;20041;-84
2022/02/28 01:27:55;;;;;;;15.40;7.40;;;;;;;;;;5032963;28;20053;-85
2022/02/28 01:30:23;;;;;;;15.15;7.53;;;;;;;;;;5035181;28;20064;-84
2022/02/28 01:32:51;;;;;;;14.55;7.60;;;;;;;;;;5035075;28;20053;-84
2022/02/28 01:35:18;;;;;;;12.88;6.95;;;;;;;;;;5017964;28;20041;-85
2022/02/28 01:37:47;;;;;;;13.77;7.18;;;;;;;;;;5033476;28;20045;-85
2022/02/28 01:40:16;;;;;;;18.20;8.60;;;;;;;;;;5035285;28;20470;-85
2022/02/28 01:42:46;;;;;;;19.33;9.05;;;;;;;;;;5035221;28;20501;-85
2022/02/28 01:45:15;;;;;;;19.85;8.32;;;;;;;;;;5034854;28;20056;-85
2022/02/28 01:47:43;;;;;;;17.83;9.15;;;;;;;;;;5047802;28;20452;-85
2022/02/28 01:50:11;;;;;;;15.80;7.72;;;;;;;;;;5036596;28;20477;-85
2022/02/28 01:52:41;;;;;;;15.27;7.88;;;;;;;;;;5037487;28;20045;-85
2022/02/28 01:55:09;;;;;;;12.93;7.32;;;;;;;;;;5024307;28;20405;-84
2022/02/28 01:57:40;;;;;;;15.13;8.43;;;;;;;;;;5058491;28;20428;-84
2022/02/28 02:00:12;;;;;;;17.15;7.97;;;;;;;;;;5041736;28;20477;-85
2022/02/28 02:02:40;;;;;;;19.25;8.48;;;;;;;;;;5039167;28;20081;-85
2022/02/28 02:05:08;;;;;;;15.27;7.53;;;;;;;;;;5051783;28;20041;-85
2022/02/28 02:07:38;;;;;;;18.02;7.40;;;;;;;;;;5038476;28;20444;-85
2022/02/28 02:10:09;;;;;;;16.20;8.77;;;;;;;;;;5056386;28;20052;-84
2022/02/28 02:12:45;;;;;;;17.25;8.45;;;;;;;;;;5039105;28;20118;-85
2022/02/28 02:15:17;;;;;;;17.05;7.80;;;;;;;;;;5056147;28;20393;-84
2022/02/28 02:17:45;;;;;;;17.45;8.90;;;;;;;;;;5038691;28;20393;-85
2022/02/28 02:20:33;;;;;;;16.17;7.43;;;;;;;;;;5048733;28;20102;-85
2022/02/28 02:23:02;;;;;;;14.93;7.82;;;;;;;;;;5056588;28;20114;-85
2022/02/28 02:25:30;;;;;;;16.23;8.20;;;;;;;;;;5038709;28;20037;-85
2022/02/28 02:27:57;;;;;;;15.93;6.68;;;;;;;;;;5038857;28;20053;-85
2022/02/28 02:30:26;;;;;;;15.45;7.38;;;;;;;;;;5006009;28;20037;-85
2022/02/28 02:32:55;;;;;;;19.02;10.48;;;;;;;;;;5057415;28;20481;-85
2022/02/28 02:35:28;;;;;;;15.15;8.10;;;;;;;;;;5040344;28;20084;-86
2022/02/28 02:37:55;;;;;;;20.58;9.13;;;;;;;;;;5048829;28;20080;-85
2022/02/28 02:40:26;;;;;;;15.95;8.07;;;;;;;;;;5020090;28;20111;-85
2022/02/28 02:42:55;;;;;;;14.90;7.38;;;;;;;;;;5012409;28;20049;-85
2022/02/28 02:45:26;;;;;;;17.00;8.27;;;;;;;;;;5040952;28;20100;-85
2022/02/28 02:47:53;;;;;;;14.52;8.20;;;;;;;;;;5034046;28;20049;-85
2022/02/28 02:50:26;;;;;;;16.98;8.15;;;;;;;;;;5039930;28;20359;-85
2022/02/28 02:52:54;;;;;;;15.27;8.65;;;;;;;;;;5057900;28;20122;-85
2022/02/28 02:55:23;;;;;;;16.85;8.05;;;;;;;;;;5056107;28;20473;-84
2022/02/28 02:57:51;;;;;;;18.05;8.10;;;;;;;;;;5056092;28;20045;-85
2022/02/28 03:00:18;;;;;;;17.42;7.63;;;;;;;;;;5038076;28;20122;-85
2022/02/28 03:02:46;;;;;;;15.70;7.78;;;;;;;;;;5018871;28;20160;-85
2022/02/28 03:05:14;;;;;;;19.60;8.05;;;;;;;;;;5053018;28;20037;-85
2022/02/28 03:07:43;;;;;;;17.73;8.02;;;;;;;;;;5052941;28;20401;-85
2022/02/28 03:10:10;;;;;;;17.13;8.45;;;;;;;;;;5039108;28;20132;-85
2022/02/28 03:12:39;;;;;;;17.25;8.55;;;;;;;;;;5037125;28;20049;-85
2022/02/28 03:15:08;;;;;;;15.88;7.82;;;;;;;;;;5022942;28;20049;-85
2022/02/28 03:17:35;;;;;;;17.67;8.48;;;;;;;;;;5038062;28;20057;-84
2022/02/28 03:20:02;;;;;;;17.13;7.22;;;;;;;;;;5040120;28;20080;-84
2022/02/28 03:22:30;;;;;;;16.38;7.60;;;;;;;;;;5023132;28;20067;-84
2022/02/28 03:25:00;;;;;;;16.15;8.38;;;;;;;;;;5005380;28;20038;-84
2022/02/28 03:27:27;;;;;;;18.75;8.25;;;;;;;;;;5018638;28;20045;-84
2022/02/28 03:29:54;;;;;;;18.33;8.35;;;;;;;;;;5040230;28;20350;-85
2022/02/28 03:32:22;;;;;;;21.08;8.85;;;;;;;;;;5006939;28;20045;-85
2022/02/28 03:34:51;;;;;;;22.35;8.88;;;;;;;;;;5056128;28;20436;-84
2022/02/28 03:37:52;;;;;;;21.15;9.70;;;;;;;;;;4857060;27;8003542;-81
2022/02/28 03:40:19;;;;;;;22.02;8.90;;;;;;;;;;5127635;28;20056;-81
2022/02/28 03:42:46;;;;;;;18.05;8.85;;;;;;;;;;5127037;28;20036;-81
2022/02/28 03:45:12;;;;;;;26.27;10.65;;;;;;;;;;5127355;28;20054;-81
2022/02/28 03:47:39;;;;;;;20.92;8.93;;;;;;;;;;5122882;28;20132;-81
2022/02/28 03:50:06;;;;;;;20.45;10.07;;;;;;;;;;5111008;28;20071;-81
2022/02/28 03:52:33;;;;;;;19.73;8.18;;;;;;;;;;5114103;27;20085;-81
2022/02/28 03:55:02;;;;;;;17.23;8.30;;;;;;;;;;5123774;27;20112;-81
2022/02/28 03:57:28;;;;;;;18.25;9.35;;;;;;;;;;5114945;28;20517;-81
2022/02/28 03:59:55;;;;;;;14.18;7.68;;;;;;;;;;5120093;28;20052;-82
2022/02/28 04:02:22;;;;;;;20.13;8.23;;;;;;;;;;5118732;28;20473;-82
2022/02/28 04:04:49;;;;;;;14.40;7.55;;;;;;;;;;5120677;28;20059;-81
2022/02/28 04:07:15;;;;;;;20.63;8.73;;;;;;;;;;5119044;28;20547;-81
2022/02/28 04:09:42;;;;;;;17.48;9.15;;;;;;;;;;5121111;27;20101;-81
2022/02/28 04:12:11;;;;;;;18.25;8.45;;;;;;;;;;5114994;28;20144;-81
2022/02/28 04:14:38;;;;;;;15.35;8.10;;;;;;;;;;5122965;28;20481;-81
2022/02/28 04:17:05;;;;;;;18.02;8.20;;;;;;;;;;5112283;28;20135;-81
2022/02/28 04:19:31;;;;;;;15.40;8.10;;;;;;;;;;5116782;28;20075;-81
2022/02/28 04:21:58;;;;;;;15.05;7.80;;;;;;;;;;5117219;28;20084;-81
2022/02/28 04:24:25;;;;;;;15.45;8.32;;;;;;;;;;5118721;27;20773;-81
2022/02/28 04:26:51;;;;;;;20.27;7.53;;;;;;;;;;5122776;27;20108;-81
2022/02/28 04:29:19;;;;;;;16.33;7.65;;;;;;;;;;5117310;28;20083;-81
2022/02/28 04:31:45;;;;;;;17.70;9.18;;;;;;;;;;5115971;28;20066;-81
2022/02/28 04:34:15;;;;;;;20.02;8.48;;;;;;;;;;5120367;28;20126;-81
2022/02/28 04:36:42;;;;;;;20.48;8.13;;;;;;;;;;5112157;28;20055;-81
2022/02/28 04:39:09;;;;;;;15.50;7.93;;;;;;;;;;5091970;28;20048;-81
2022/02/28 04:41:35;;;;;;;17.10;8.25;;;;;;;;;;5094385;28;20071;-81
2022/02/28 04:44:02;;;;;;;15.18;7.82;;;;;;;;;;5099488;28;20036;-82
2022/02/28 04:46:30;;;;;;;15.93;8.50;;;;;;;;;;5090186;28;20141;-82
2022/02/28 04:48:56;;;;;;;16.83;8.82;;;;;;;;;;5088101;28;20131;-81
2022/02/28 04:51:23;;;;;;;15.93;8.10;;;;;;;;;;5086765;28;20130;-81
2022/02/28 04:53:50;;;;;;;15.50;7.47;;;;;;;;;;5080341;28;20082;-81
2022/02/28 04:56:16;;;;;;;18.70;8.02;;;;;;;;;;5080360;28;20120;-81
2022/02/28 04:58:43;;;;;;;19.80;8.07;;;;;;;;;;5080083;28;20082;-81
2022/02/28 05:01:09;;;;;;;13.82;8.25;;;;;;;;;;5083292;28;20083;-81
2022/02/28 05:03:37;;;;;;;15.65;8.05;;;;;;;;;;5103800;27;20433;-81
2022/02/28 05:06:04;;;;;;;15.23;8.13;;;;;;;;;;5100753;28;20748;-81
2022/02/28 05:08:30;;;;;;;17.92;8.73;;;;;;;;;;5095679;28;20048;-82
2022/02/28 05:10:57;;;;;;;19.00;8.40;;;;;;;;;;5100427;28;20047;-81
2022/02/28 05:13:23;;;;;;;18.30;9.13;;;;;;;;;;5100660;28;20121;-81
2022/02/28 05:15:50;;;;;;;15.85;7.95;;;;;;;;;;5099327;28;20571;-82
2022/02/28 05:18:16;;;;;;;15.35;8.20;;;;;;;;;;5100162;27;20048;-81
2022/02/28 05:20:45;;;;;;;20.27;9.32;;;;;;;;;;5105359;27;20452;-81
2022/02/28 05:23:12;;;;;;;17.83;7.45;;;;;;;;;;5097200;28;20134;-82
2022/02/28 05:25:38;;;;;;;15.13;8.48;;;;;;;;;;5098152;28;20047;-82
2022/02/28 05:28:05;;;;;;;17.85;8.60;;;;;;;;;;5102695;28;20109;-82
2022/02/28 05:30:32;;;;;;;17.83;8.10;;;;;;;;;;5103914;28;20140;-82
2022/02/28 05:32:58;;;;;;;15.10;7.57;;;;;;;;;;5102202;27;20083;-82
2022/02/28 05:35:25;;;;;;;13.05;7.45;;;;;;;;;;5098003;28;20752;-82
2022/02/28 05:37:53;;;;;;;17.30;8.13;;;;;;;;;;5103427;28;20090;-82
2022/02/28 05:40:20;;;;;;;18.95;8.38;;;;;;;;;;5101401;28;20043;-82
2022/02/28 05:42:46;;;;;;;20.27;8.90;;;;;;;;;;5100821;28;20059;-82
2022/02/28 05:45:13;;;;;;;18.35;8.50;;;;;;;;;;5102666;28;20043;-82
2022/02/28 05:47:42;;;;;;;15.05;8.52;;;;;;;;;;5102168;28;20423;-81
2022/02/28 05:50:09;;;;;;;18.30;8.77;;;;;;;;;;5104388;28;20103;-81
2022/02/28 05:52:36;;;;;;;16.67;8.57;;;;;;;;;;5098960;27;20075;-81
2022/02/28 05:55:04;;;;;;;20.60;8.73;;;;;;;;;;5102583;28;20090;-81
2022/02/28 05:57:35;;;;;;;19.15;9.88;;;;;;;;;;5101491;28;20082;-81
2022/02/28 06:00:01;;;;;;;15.15;8.50;;;;;;;;;;5093651;28;20048;-82
2022/02/28 06:02:28;;;;;;;18.92;8.10;;;;;;;;;;5096903;28;20044;-82
2022/02/28 06:04:54;;;;;;;21.90;9.55;;;;;;;;;;5106007;28;20096;-82
2022/02/28 06:07:21;;;;;;;20.85;8.63;;;;;;;;;;5110069;28;20043;-82
2022/02/28 06:09:47;;;;;;;18.50;8.02;;;;;;;;;;5099482;28;20482;-81
2022/02/28 06:12:15;;;;;;;20.75;8.05;;;;;;;;;;5102287;28;20056;-81
2022/02/28 06:14:42;;;;;;;18.08;8.13;;;;;;;;;;5108260;28;20509;-81
2022/02/28 06:17:09;;;;;;;17.30;8.25;;;;;;;;;;5104175;28;20044;-82
2022/02/28 06:19:35;;;;;;;14.23;7.28;;;;;;;;;;5101046;28;20048;-82
2022/02/28 06:22:02;;;;;;;14.88;6.25;;;;;;;;;;5107732;28;20498;-82
2022/02/28 06:24:28;;;;;;;14.38;7.50;;;;;;;;;;5105571;28;20044;-82
2022/02/28 06:26:55;;;;;;;19.45;7.40;;;;;;;;;;5108207;28;20047;-82
2022/02/28 06:29:23;;;;;;;14.77;6.55;;;;;;;;;;5099665;28;20047;-82
2022/02/28 06:31:49;;;;;;;15.68;6.38;;;;;;;;;;5108778;28;20409;-82
2022/02/28 06:34:16;;;;;;;16.52;7.22;;;;;;;;;;5110827;28;20149;-82
2022/02/28 06:36:43;;;;;;;17.63;7.85;;;;;;;;;;5102937;28;20043;-82
2022/02/28 06:39:10;;;;;;;16.48;7.82;;;;;;;;;;5097232;28;20086;-82
2022/02/28 06:41:37;;;;;;;15.30;6.75;;;;;;;;;;5103702;28;20063;-82
2022/02/28 06:44:05;;;;;;;16.27;7.25;;;;;;;;;;5105191;28;20530;-82
2022/02/28 06:46:34;;;;;;;16.60;7.47;;;;;;;;;;5111815;28;20052;-82
2022/02/28 06:49:00;;;;;;;20.65;9.05;;;;;;;;;;5098874;28;20495;-82
2022/02/28 06:51:28;;;;;;;22.65;11.45;;;;;;;;;;5105218;28;20058;-82
2022/02/28 06:53:54;;;;;;;20.75;10.40;;;;;;;;;;5098542;28;20055;-82
2022/02/28 06:56:21;;;;;;;21.58;12.27;;;;;;;;;;5101398;28;20131;-82
2022/02/28 06:58:47;;;;;;;21.83;9.68;;;;;;;;;;5102329;28;20043;-82
2022/02/28 07:01:14;;;;;;;26.95;10.50;;;;;;;;;;5107014;28;20120;-82
2022/02/28 07:03:42;;;;;;;21.95;10.77;;;;;;;;;;5109581;28;20074;-82
2022/02/28 07:06:11;;;;;;;29.83;13.23;;;;;;;;;;5102558;28;20085;-82
2022/02/28 07:08:38;;;;;;;25.27;13.60;;;;;;;;;;5108836;28;20430;-82
2022/02/28 07:11:04;;;;;;;19.65;9.82;;;;;;;;;;5092977;28;20047;-82
2022/02/28 07:13:32;;;;;;;22.05;10.27;;;;;;;;;;5106889;28;20051;-82
2022/02/28 07:15:58;;;;;;;16.33;8.20;;;;;;;;;;5105592;28;20047;-82
2022/02/28 07:18:25;;;;;;;15.27;8.30;;;;;;;;;;5108129;28;20043;-82
2022/02/28 07:20:53;;;;;;;19.85;8.30;;;;;;;;;;5100331;28;20460;-82
2022/02/28 07:23:19;;;;;;;22.00;9.85;;;;;;;;;;5099885;28;20101;-82
2022/02/28 07:25:46;;;;;;;15.32;8.30;;;;;;;;;;5101970;28;20092;-82
2022/02/28 07:28:13;;;;;;;16.00;8.50;;;;;;;;;;5094243;28;20196;-82
2022/02/28 07:30:39;;;;;;;24.40;9.48;;;;;;;;;;5097395;28;20509;-82
2022/02/28 07:33:06;;;;;;;20.23;9.77;;;;;;;;;;5101574;28;20040;-82
2022/02/28 07:35:33;;;;;;;22.05;10.90;;;;;;;;;;5106162;28;20055;-82
2022/02/28 07:38:01;;;;;;;23.48;11.45;;;;;;;;;;5106093;28;20112;-82
2022/02/28 07:40:28;;;;;;;22.55;10.85;;;;;;;;;;5111107;28;20687;-82
2022/02/28 07:42:55;;;;;;;23.20;11.35;;;;;;;;;;5107585;28;20869;-82
2022/02/28 07:45:22;;;;;;;18.30;9.55;;;;;;;;;;5102955;28;20035;-82
2022/02/28 07:47:49;;;;;;;19.10;9.35;;;;;;;;;;5102940;28;20059;-82
2022/02/28 07:50:15;;;;;;;19.90;8.73;;;;;;;;;;5105406;28;20382;-82
2022/02/28 07:52:42;;;;;;;16.65;9.82;;;;;;;;;;5102309;28;20403;-82
2022/02/28 07:55:10;;;;;;;17.08;8.63;;;;;;;;;;5092490;28;20077;-82
2022/02/28 07:57:38;;;;;;;14.88;9.15;;;;;;;;;;5108013;28;20048;-82
2022/02/28 08:00:06;;;;;;;17.15;9.55;;;;;;;;;;5092445;28;20098;-83
2022/02/28 08:02:33;;;;;;;21.27;9.63;;;;;;;;;;5093354;28;20048;-83
2022/02/28 08:04:59;;;;;;;15.02;8.15;;;;;;;;;;5101201;28;20052;-83
2022/02/28 08:07:26;;;;;;;17.75;8.90;;;;;;;;;;5103872;28;20047;-83
2022/02/28 08:09:52;;;;;;;19.10;9.70;;;;;;;;;;5107554;28;20048;-83
2022/02/28 08:12:20;;;;;;;24.67;8.77;;;;;;;;;;5098738;28;20043;-83
2022/02/28 08:14:47;;;;;;;16.50;8.73;;;;;;;;;;5098144;28;20188;-82
2022/02/28 08:17:13;;;;;;;15.18;8.82;;;;;;;;;;5098899;28;20467;-82
2022/02/28 08:19:40;;;;;;;14.60;8.38;;;;;;;;;;5100352;28;20047;-82
2022/02/28 08:22:06;;;;;;;18.63;8.52;;;;;;;;;;5109198;28;20489;-82
2022/02/28 08:24:33;;;;;;;15.57;8.43;;;;;;;;;;5106671;28;20130;-82
2022/02/28 08:27:00;;;;;;;15.88;9.38;;;;;;;;;;5105897;28;20145;-82
2022/02/28 08:29:27;;;;;;;17.30;9.38;;;;;;;;;;5105438;28;20056;-83
2022/02/28 08:31:54;;;;;;;15.43;8.07;;;;;;;;;;5114228;28;20055;-82
2022/02/28 08:34:24;;;;;;;15.77;7.88;;;;;;;;;;5108437;28;20039;-83
2022/02/28 08:36:50;;;;;;;16.15;8.68;;;;;;;;;;5112190;28;20052;-83
2022/02/28 08:39:17;;;;;;;15.38;8.02;;;;;;;;;;5112761;28;20480;-82
2022/02/28 08:41:43;;;;;;;15.38;8.07;;;;;;;;;;5106930;28;20535;-82
2022/02/28 08:44:10;;;;;;;15.27;8.82;;;;;;;;;;5103506;28;20040;-83
2022/02/28 08:46:38;;;;;;;15.23;8.50;;;;;;;;;;5109626;28;20139;-83
2022/02/28 08:49:05;;;;;;;12.77;7.72;;;;;;;;;;5110222;28;20115;-82
2022/02/28 08:51:32;;;;;;;16.90;8.27;;;;;;;;;;5106676;28;20086;-83
2022/02/28 08:53:59;;;;;;;14.57;7.43;;;;;;;;;;5105416;28;20072;-83
2022/02/28 08:56:26;;;;;;;13.85;7.45;;;;;;;;;;5102323;28;20096;-83
2022/02/28 08:58:52;;;;;;;12.98;7.40;;;;;;;;;;5099524;28;20071;-83
2022/02/28 09:01:19;;;;;;;15.18;7.32;;;;;;;;;;5102528;28;20101;-82
2022/02/28 09:03:47;;;;;;;15.55;7.70;;;;;;;;;;5102686;28;20051;-83
2022/02/28 09:06:14;;;;;;;17.02;8.45;;;;;;;;;;5107399;28;20107;-83
2022/02/28 09:08:40;;;;;;;17.05;8.63;;;;;;;;;;5108060;28;20122;-83
2022/02/28 09:11:07;;;;;;;16.63;7.93;;;;;;;;;;5110089;28;20075;-83
2022/02/28 09:13:34;;;;;;;18.38;8.65;;;;;;;;;;5102123;28;20704;-83
2022/02/28 09:16:01;;;;;;;13.90;7.90;;;;;;;;;;5110061;28;20062;-83
2022/02/28 09:18:28;;;;;;;13.30;8.00;;;;;;;;;;5114947;28;20079;-83
2022/02/28 09:20:56;;;;;;;13.68;7.75;;;;;;;;;;5102984;28;20100;-83
2022/02/28 09:23:23;;;;;;;14.68;8.68;;;;;;;;;;5107723;28;20086;-83
2022/02/28 09:25:50;;;;;;;13.30;7.93;;;;;;;;;;5108311;28;20094;-83
2022/02/28 09:28:17;;;;;;;14.18;8.27;;;;;;;;;;5106405;28;20047;-83
2022/02/28 09:30:44;;;;;;;15.60;7.47;;;;;;;;;;5101648;28;20101;-83
2022/02/28 09:33:10;;;;;;;19.83;8.05;;;;;;;;;;5108064;28;20048;-80
2022/02/28 09:35:37;;;;;;;15.80;9.50;;;;;;;;;;5103264;28;20048;-81
2022/02/28 09:38:05;;;;;;;14.68;9.25;;;;;;;;;;5121812;27;20056;-81
2022/02/28 09:40:34;;;;;;;14.35;8.15;;;;;;;;;;5098065;28;20079;-81
2022/02/28 09:43:02;;;;;;;15.70;7.65;;;;;;;;;;5103791;28;20048;-81
2022/02/28 09:45:29;;;;;;;12.20;7.72;;;;;;;;;;5102578;28;20058;-81
2022/02/28 09:47:56;;;;;;;13.00;8.48;;;;;;;;;;5100842;28;20087;-83
2022/02/28 09:50:24;;;;;;;13.07;7.80;;;;;;;;;;5099629;27;20115;-81
2022/02/28 09:52:52;;;;;;;14.68;9.52;;;;;;;;;;5105478;28;20098;-83
2022/02/28 09:55:20;;;;;;;12.55;7.07;;;;;;;;;;5095780;28;20136;-82
2022/02/28 09:57:48;;;;;;;18.08;8.27;;;;;;;;;;5098032;28;20088;-82
2022/02/28 10:00:19;;;;;;;16.70;8.77;;;;;;;;;;5101759;28;20075;-82
2022/02/28 10:02:46;;;;;;;14.73;7.93;;;;;;;;;;5097678;28;20071;-82
2022/02/28 10:05:13;;;;;;;16.83;8.45;;;;;;;;;;5101342;28;20140;-82
2022/02/28 10:07:49;;;;;;;15.80;8.38;;;;;;;;;;5102356;28;20055;-82
2022/02/28 10:10:16;;;;;;;19.42;7.82;;;;;;;;;;5101881;28;20079;-82
2022/02/28 10:12:53;;;;;;;17.15;8.20;;;;;;;;;;5100861;28;20104;-82
2022/02/28 10:15:21;;;;;;;13.57;7.68;;;;;;;;;;5099956;28;20044;-82
2022/02/28 10:17:50;;;;;;;13.98;7.93;;;;;;;;;;5095427;28;20044;-81
2022/02/28 10:20:18;;;;;;;12.25;7.13;;;;;;;;;;5102068;27;20039;-82
2022/02/28 10:22:46;;;;;;;14.40;7.85;;;;;;;;;;5104375;27;20043;-82
2022/02/28 10:25:29;;;;;;;16.38;9.10;;;;;;;;;;5105486;28;20036;-82
2022/02/28 10:28:12;;;;;;;13.80;7.45;;;;;;;;;;5094410;28;20052;-82
2022/02/28 10:30:39;;;;;;;11.65;7.10;;;;;;;;;;5097879;28;20047;-82
2022/02/28 10:33:10;;;;;;;12.13;7.97;;;;;;;;;;5096820;28;20056;-82
2022/02/28 10:38:26;;;;;;;15.50;8.30;;;;;;;;;;5106134;28;20065;-82
2022/02/28 10:40:53;;;;;;;15.23;7.93;;;;;;;;;;5104909;28;20085;-82
2022/02/28 10:43:26;;;;;;;13.90;8.07;;;;;;;;;;5099422;27;20059;-82
2022/02/28 10:45:53;;;;;;;13.68;7.25;;;;;;;;;;5095999;28;20100;-82
2022/02/28 10:48:21;;;;;;;12.65;8.43;;;;;;;;;;5098258;28;20056;-83
2022/02/28 10:50:48;;;;;;;13.88;8.50;;;;;;;;;;5095691;28;20039;-83
2022/02/28 10:53:16;;;;;;;12.65;8.13;;;;;;;;;;5095625;28;20052;-82
2022/02/28 10:55:43;;;;;;;13.63;8.52;;;;;;;;;;5096431;28;20093;-83
2022/02/28 10:58:11;;;;;;;12.63;7.95;;;;;;;;;;5098666;28;20073;-83
2022/02/28 11:00:53;;;;;;;16.13;9.32;;;;;;;;;;5102444;28;20098;-83
2022/02/28 11:03:20;;;;;;;13.38;8.55;;;;;;;;;;5103972;28;20515;-82
2022/02/28 11:05:52;;;;;;;12.20;7.88;;;;;;;;;;5101454;28;20472;-83
2022/02/28 11:08:20;;;;;;;15.90;7.93;;;;;;;;;;5098369;28;20100;-83
2022/02/28 11:10:47;;;;;;;12.40;7.93;;;;;;;;;;5093621;28;20088;-82
2022/02/28 11:13:13;;;;;;;12.40;7.75;;;;;;;;;;5099832;28;20497;-83
2022/02/28 11:15:40;;;;;;;9.88;6.60;;;;;;;;;;5095642;28;20043;-83
2022/02/28 11:18:10;;;;;;;14.95;7.18;;;;;;;;;;5098723;28;20052;-82
2022/02/28 11:20:37;;;;;;;17.85;7.15;;;;;;;;;;5102467;28;20052;-83
2022/02/28 11:23:04;;;;;;;13.65;8.43;;;;;;;;;;5098717;28;20126;-81
2022/02/28 11:25:31;;;;;;;16.25;7.72;;;;;;;;;;5095289;28;20048;-81
2022/02/28 11:27:59;;;;;;;12.00;7.13;;;;;;;;;;5096676;28;20134;-81
2022/02/28 11:30:28;;;;;;;15.25;8.63;;;;;;;;;;5099093;28;20537;-82
2022/02/28 11:32:59;;;;;;;13.80;8.18;;;;;;;;;;5099264;28;20130;-82
2022/02/28 11:35:39;;;;;;;15.10;8.40;;;;;;;;;;5094532;28;20083;-82
2022/02/28 11:38:40;;;;;;;13.43;8.52;;;;;;;;;;5100164;28;20117;-84
2022/02/28 11:41:07;;;;;;;14.23;8.82;;;;;;;;;;5101491;28;20075;-82
2022/02/28 11:43:35;;;;;;;15.10;9.20;;;;;;;;;;5099074;28;20470;-82
2022/02/28 11:46:13;;;;;;;13.35;8.32;;;;;;;;;;5105986;28;20390;-81
2022/02/28 11:48:41;;;;;;;13.05;8.65;;;;;;;;;;5092256;28;20087;-82
2022/02/28 11:51:11;;;;;;;12.57;7.60;;;;;;;;;;5099487;28;20071;-82
2022/02/28 11:53:40;;;;;;;15.85;9.27;;;;;;;;;;5104645;28;20047;-82
2022/02/28 11:56:46;;;;;;;16.13;8.90;;;;;;;;;;5103169;28;20048;-83
2022/02/28 11:59:18;;;;;;;12.68;8.50;;;;;;;;;;5101583;28;20071;-82
2022/02/28 12:01:51;;;;;;;14.80;9.23;;;;;;;;;;5103272;28;20100;-82
2022/02/28 12:04:19;;;;;;;14.70;7.60;;;;;;;;;;5100051;28;20067;-83
2022/02/28 12:06:52;;;;;;;12.95;9.05;;;;;;;;;;5104566;28;20159;-83
2022/02/28 12:09:38;;;;;;;12.55;7.57;;;;;;;;;;5105045;28;20191;-83
2022/02/28 12:12:14;;;;;;;;;;;;;;;;;;5102616;27;20052;-84
2022/02/28 12:15:15;;;;;;;15.38;8.82;;;;;;;;;;5110574;28;19973;-83
2022/02/28 12:17:53;;;;;;;13.88;7.85;;;;;;;;;;5104858;28;20134;-83
2022/02/28 12:20:21;;;;;;;13.65;8.45;;;;;;;;;;5104974;28;20051;-83
2022/02/28 12:23:09;;;;;;;12.30;7.47;;;;;;;;;;5105890;28;20052;-83
2022/02/28 12:25:38;;;;;;;12.55;7.95;;;;;;;;;;5107098;28;20132;-83
2022/02/28 12:28:15;;;;;;;13.73;8.40;;;;;;;;;;5101207;28;20044;-83
2022/02/28 12:30:48;;;;;;;11.60;7.22;;;;;;;;;;5106773;28;20039;-83
2022/02/28 12:33:16;;;;;;;12.98;7.15;;;;;;;;;;5114683;28;20112;-83
2022/02/28 12:35:58;;;;;;;12.27;7.93;;;;;;;;;;5102729;28;20075;-83
2022/02/28 12:38:27;;;;;;;13.93;9.25;;;;;;;;;;5104506;28;20052;-83
2022/02/28 12:40:56;;;;;;;13.48;8.38;;;;;;;;;;5111074;28;20071;-83
2022/02/28 12:43:23;;;;;;;13.43;7.70;;;;;;;;;;5111006;28;20061;-83
2022/02/28 12:45:52;;;;;;;12.88;8.60;;;;;;;;;;5101640;28;20092;-83
2022/02/28 12:48:20;;;;;;;15.18;9.23;;;;;;;;;;5105893;28;20132;-83
2022/02/28 12:50:51;;;;;;;14.35;8.32;;;;;;;;;;5106388;28;20070;-83
2022/02/28 12:53:18;;;;;;;15.30;9.63;;;;;;;;;;5110097;28;20082;-83
2022/02/28 12:55:55;;;;;;;13.00;8.45;;;;;;;;;;5106296;28;20104;-83
2022/02/28 12:58:24;;;;;;;13.52;8.95;;;;;;;;;;5110495;28;20128;-83
2022/02/28 13:00:52;;;;;;;13.65;9.18;;;;;;;;;;5106703;28;20110;-83
2022/02/28 13:03:18;;;;;;;15.60;9.02;;;;;;;;;;5104442;28;20130;-84
2022/02/28 13:05:58;;;;;;;18.02;10.10;;;;;;;;;;5107512;28;20090;-83
2022/02/28 13:08:25;;;;;;;12.75;8.05;;;;;;;;;;5105293;28;20130;-83
2022/02/28 13:11:14;;;;;;;14.45;9.88;;;;;;;;;;5103889;28;20044;-83
2022/02/28 13:13:42;;;;;;;13.23;8.98;;;;;;;;;;5103435;28;20084;-83
2022/02/28 13:16:09;;;;;;;13.75;8.05;;;;;;;;;;5110675;28;20043;-83
2022/02/28 13:18:36;;;;;;;13.18;8.55;;;;;;;;;;5103129;28;20040;-83
2022/02/28 13:21:02;;;;;;;14.77;9.13;;;;;;;;;;5107755;28;20076;-83
2022/02/28 13:23:29;;;;;;;14.35;9.50;;;;;;;;;;5106573;28;20079;-83
2022/02/28 13:25:57;;;;;;;13.23;8.93;;;;;;;;;;5105244;28;20060;-83
2022/02/28 13:28:37;;;;;;;15.27;9.10;;;;;;;;;;5103528;28;20051;-84
2022/02/28 13:31:05;;;;;;;17.60;9.90;;;;;;;;;;5105692;28;20116;-84
2022/02/28 13:33:32;;;;;;;14.23;9.65;;;;;;;;;;5105632;28;20048;-82
2022/02/28 13:35:59;;;;;;;11.27;8.60;;;;;;;;;;5106385;28;20158;-82
2022/02/28 13:38:27;;;;;;;13.05;8.88;;;;;;;;;;5103819;28;20064;-81
2022/02/28 13:40:54;;;;;;;14.75;8.93;;;;;;;;;;5099368;28;20048;-82
2022/02/28 13:43:21;;;;;;;16.33;9.93;;;;;;;;;;5109061;28;20079;-82
2022/02/28 13:45:50;;;;;;;20.25;10.32;;;;;;;;;;5100437;28;20040;-82
2022/02/28 13:48:19;;;;;;;17.85;10.30;;;;;;;;;;5107713;28;20054;-82
2022/02/28 13:50:46;;;;;;;13.32;9.05;;;;;;;;;;5105973;28;20043;-82
2022/02/28 13:53:13;;;;;;;14.27;8.48;;;;;;;;;;5105441;28;20036;-82
2022/02/28 13:55:42;;;;;;;13.50;7.82;;;;;;;;;;5109918;28;20097;-82
2022/02/28 13:58:10;;;;;;;14.18;9.88;;;;;;;;;;5110586;28;20081;-81
2022/02/28 14:00:38;;;;;;;17.00;10.15;;;;;;;;;;5100753;28;20059;-82
2022/02/28 14:03:14;;;;;;;14.25;9.30;;;;;;;;;;5108599;28;20079;-82
2022/02/28 14:05:41;;;;;;;;;;;;;;;;;;5106957;28;20051;-82
2022/02/28 14:08:12;;;;;;;15.00;9.02;;;;;;;;;;5097684;28;19924;-82
2022/02/28 14:10:40;;;;;;;15.52;8.35;;;;;;;;;;5107314;28;20130;-82
2022/02/28 14:13:14;;;;;;;12.68;8.43;;;;;;;;;;5106034;28;20629;-82
2022/02/28 14:15:41;;;;;;;13.50;8.65;;;;;;;;;;5099988;28;20446;-82
2022/02/28 14:18:08;;;;;;;14.82;8.50;;;;;;;;;;5107183;28;20454;-82
2022/02/28 14:20:38;;;;;;;12.23;8.68;;;;;;;;;;5097107;28;20128;-82
2022/02/28 14:23:07;;;;;;;13.18;7.85;;;;;;;;;;5097100;27;20128;-82
2022/02/28 14:25:34;;;;;;;14.85;8.82;;;;;;;;;;5099499;28;20410;-82
2022/02/28 14:28:03;;;;;;;16.08;8.50;;;;;;;;;;5103092;28;20437;-82
2022/02/28 14:30:30;;;;;;;14.05;8.95;;;;;;;;;;5100184;28;20051;-82
2022/02/28 14:33:04;;;;;;;12.25;8.07;;;;;;;;;;5105662;28;20055;-82
2022/02/28 14:35:31;;;;;;;12.20;9.05;;;;;;;;;;5102815;28;20076;-82
2022/02/28 14:38:00;;;;;;;11.38;8.25;;;;;;;;;;5098411;28;20051;-82
2022/02/28 14:40:28;;;;;;;12.57;8.70;;;;;;;;;;5109440;28;20059;-83
2022/02/28 14:42:55;;;;;;;10.38;7.35;;;;;;;;;;5103618;28;20597;-82
2022/02/28 14:45:22;;;;;;;13.68;8.40;;;;;;;;;;5103158;28;20071;-82